sensor_id;sensor_type;location;lat;lon;timestamp;pressure;altitude;pressure_sealevel;temperature;humidity
9423;BME280;65863;49.506;10.400;2023-12-22T00:00:11;96508.53;;;3.21;93.62
9423;BME280;65863;49.506;10.400;2023-12-22T00:02:55;96492.63;;;3.21;93.43
9423;BME280;65863;49.506;10.400;2023-12-22T00:05:39;96473.34;;;2.95;93.94
9423;BME280;65863;49.506;10.400;2023-12-22T00:08:23;96405.78;;;2.63;93.87
9423;BME280;65863;49.506;10.400;2023-12-22T00:11:07;96464.88;;;3.00;94.14
9423;BME280;65863;49.506;10.400;2023-12-22T00:13:51;96497.03;;;3.17;94.17
9423;BME280;65863;49.506;10.400;2023-12-22T00:16:37;96485.72;;;3.15;94.50
9423;BME280;65863;49.506;10.400;2023-12-22T00:19:21;96430.75;;;2.84;94.40
9423;BME280;65863;49.506;10.400;2023-12-22T00:22:05;96478.50;;;3.12;94.23
9423;BME280;65863;49.506;10.400;2023-12-22T00:24:49;96431.97;;;2.62;94.84
9423;BME280;65863;49.506;10.400;2023-12-22T00:27:33;96503.81;;;2.95;95.21
9423;BME280;65863;49.506;10.400;2023-12-22T00:30:17;96493.75;;;2.84;95.53
9423;BME280;65863;49.506;10.400;2023-12-22T00:33:02;96517.25;;;3.04;95.18
9423;BME280;65863;49.506;10.400;2023-12-22T00:35:46;96472.63;;;2.81;94.87
9423;BME280;65863;49.506;10.400;2023-12-22T00:38:30;96506.03;;;3.09;94.87
9423;BME280;65863;49.506;10.400;2023-12-22T00:41:14;96477.97;;;2.79;95.43
9423;BME280;65863;49.506;10.400;2023-12-22T00:43:58;96463.03;;;2.82;95.10
9423;BME280;65863;49.506;10.400;2023-12-22T00:46:42;96478.59;;;2.85;95.26
9423;BME280;65863;49.506;10.400;2023-12-22T00:49:26;96477.91;;;2.92;95.75
9423;BME280;65863;49.506;10.400;2023-12-22T00:52:10;96504.22;;;3.12;95.93
9423;BME280;65863;49.506;10.400;2023-12-22T00:54:54;96466.31;;;2.93;95.57
9423;BME280;65863;49.506;10.400;2023-12-22T00:57:38;96410.94;;;2.46;96.11
9423;BME280;65863;49.506;10.400;2023-12-22T01:00:22;96516.81;;;3.00;96.54
9423;BME280;65863;49.506;10.400;2023-12-22T01:03:06;96483.31;;;2.77;96.51
9423;BME280;65863;49.506;10.400;2023-12-22T01:05:50;96512.78;;;3.01;96.72
9423;BME280;65863;49.506;10.400;2023-12-22T01:08:37;96481.16;;;2.83;96.92
9423;BME280;65863;49.506;10.400;2023-12-22T01:11:22;96476.19;;;2.68;96.76
9423;BME280;65863;49.506;10.400;2023-12-22T01:14:06;96428.47;;;2.27;96.12
9423;BME280;65863;49.506;10.400;2023-12-22T01:16:50;96513.44;;;2.93;96.13
9423;BME280;65863;49.506;10.400;2023-12-22T01:19:34;96513.34;;;2.86;95.94
9423;BME280;65863;49.506;10.400;2023-12-22T01:22:18;96453.53;;;2.56;95.47
9423;BME280;65863;49.506;10.400;2023-12-22T01:25:02;96493.81;;;2.91;95.15
9423;BME280;65863;49.506;10.400;2023-12-22T01:27:47;96455.31;;;2.67;95.76
9423;BME280;65863;49.506;10.400;2023-12-22T01:30:32;96502.22;;;2.99;95.29
9423;BME280;65863;49.506;10.400;2023-12-22T01:33:16;96525.09;;;3.13;95.03
9423;BME280;65863;49.506;10.400;2023-12-22T01:36:00;96512.13;;;3.08;95.24
9423;BME280;65863;49.506;10.400;2023-12-22T01:38:44;96460.06;;;2.80;95.45
9423;BME280;65863;49.506;10.400;2023-12-22T01:41:29;96495.38;;;3.00;95.33
9423;BME280;65863;49.506;10.400;2023-12-22T01:44:13;96497.63;;;3.02;95.02
9423;BME280;65863;49.506;10.400;2023-12-22T01:46:57;96529.22;;;3.20;94.61
9423;BME280;65863;49.506;10.400;2023-12-22T01:49:41;96557.66;;;3.34;95.28
9423;BME280;65863;49.506;10.400;2023-12-22T01:52:26;96539.66;;;3.27;95.66
9423;BME280;65863;49.506;10.400;2023-12-22T01:55:11;96535.63;;;3.15;95.92
9423;BME280;65863;49.506;10.400;2023-12-22T01:57:56;96470.19;;;2.77;97.11
9423;BME280;65863;49.506;10.400;2023-12-22T02:00:40;96531.41;;;3.14;98.13
9423;BME280;65863;49.506;10.400;2023-12-22T02:03:24;96533.34;;;3.05;98.81
9423;BME280;65863;49.506;10.400;2023-12-22T02:06:08;96529.72;;;2.97;99.29
9423;BME280;65863;49.506;10.400;2023-12-22T02:08:53;96540.38;;;3.06;99.56
9423;BME280;65863;49.506;10.400;2023-12-22T02:11:38;96550.59;;;3.12;99.76
9423;BME280;65863;49.506;10.400;2023-12-22T02:14:22;96522.03;;;3.03;100.00
9423;BME280;65863;49.506;10.400;2023-12-22T02:17:15;96532.88;;;3.15;100.00
9423;BME280;65863;49.506;10.400;2023-12-22T02:20:07;96529.22;;;3.20;99.94
9423;BME280;65863;49.506;10.400;2023-12-22T02:22:52;96524.97;;;3.19;100.00
9423;BME280;65863;49.506;10.400;2023-12-22T02:25:36;96518.41;;;3.08;100.00
9423;BME280;65863;49.506;10.400;2023-12-22T02:28:21;96524.53;;;3.15;100.00
9423;BME280;65863;49.506;10.400;2023-12-22T02:31:16;96520.44;;;3.08;100.00
9423;BME280;65863;49.506;10.400;2023-12-22T02:34:05;96558.63;;;3.36;100.00
9423;BME280;65863;49.506;10.400;2023-12-22T02:36:53;96536.47;;;3.23;100.00
9423;BME280;65863;49.506;10.400;2023-12-22T02:39:38;96522.56;;;3.02;100.00
9423;BME280;65863;49.506;10.400;2023-12-22T02:42:23;96557.75;;;3.07;100.00
9423;BME280;65863;49.506;10.400;2023-12-22T02:45:15;96569.63;;;2.94;100.00
9423;BME280;65863;49.506;10.400;2023-12-22T02:47:59;96581.06;;;2.64;100.00
9423;BME280;65863;49.506;10.400;2023-12-22T02:50:43;96601.00;;;2.49;100.00
9423;BME280;65863;49.506;10.400;2023-12-22T02:53:27;96588.38;;;2.21;100.00
9423;BME280;65863;49.506;10.400;2023-12-22T02:56:11;96603.97;;;2.37;100.00
9423;BME280;65863;49.506;10.400;2023-12-22T02:58:55;96610.03;;;2.49;100.00
9423;BME280;65863;49.506;10.400;2023-12-22T03:01:39;96621.88;;;2.50;100.00
9423;BME280;65863;49.506;10.400;2023-12-22T03:04:23;96511.28;;;1.85;98.78
9423;BME280;65863;49.506;10.400;2023-12-22T03:07:07;96593.94;;;2.48;99.23
9423;BME280;65863;49.506;10.400;2023-12-22T03:09:52;96550.59;;;2.23;99.50
9423;BME280;65863;49.506;10.400;2023-12-22T03:12:36;96582.78;;;2.40;98.20
9423;BME280;65863;49.506;10.400;2023-12-22T03:15:20;96578.84;;;2.35;98.66
9423;BME280;65863;49.506;10.400;2023-12-22T03:18:04;96621.97;;;2.57;98.30
9423;BME280;65863;49.506;10.400;2023-12-22T03:20:48;96528.13;;;2.00;97.98
9423;BME280;65863;49.506;10.400;2023-12-22T03:23:32;96609.00;;;2.52;97.56
9423;BME280;65863;49.506;10.400;2023-12-22T03:26:16;96601.41;;;2.39;96.41
9423;BME280;65863;49.506;10.400;2023-12-22T03:29:00;96580.75;;;2.27;95.94
9423;BME280;65863;49.506;10.400;2023-12-22T03:31:45;96578.84;;;2.35;95.96
9423;BME280;65863;49.506;10.400;2023-12-22T03:34:29;96562.63;;;2.26;95.82
9423;BME280;65863;49.506;10.400;2023-12-22T03:37:13;96595.97;;;2.47;95.70
9423;BME280;65863;49.506;10.400;2023-12-22T03:39:57;96584.78;;;2.39;95.61
9423;BME280;65863;49.506;10.400;2023-12-22T03:42:41;96474.03;;;1.86;95.64
9423;BME280;65863;49.506;10.400;2023-12-22T03:45:25;96577.13;;;2.46;96.31
9423;BME280;65863;49.506;10.400;2023-12-22T03:48:09;96505.13;;;2.05;96.69
9423;BME280;65863;49.506;10.400;2023-12-22T03:50:53;96574.78;;;2.36;97.23
9423;BME280;65863;49.506;10.400;2023-12-22T03:53:37;96603.66;;;2.54;96.81
9423;BME280;65863;49.506;10.400;2023-12-22T03:56:21;96599.16;;;2.38;97.70
9423;BME280;65863;49.506;10.400;2023-12-22T03:59:05;96594.34;;;2.12;99.10
9423;BME280;65863;49.506;10.400;2023-12-22T04:01:51;96567.06;;;1.89;99.88
9423;BME280;65863;49.506;10.400;2023-12-22T04:04:37;96613.50;;;2.10;100.00
9423;BME280;65863;49.506;10.400;2023-12-22T04:07:22;96607.13;;;2.01;100.00
9423;BME280;65863;49.506;10.400;2023-12-22T04:10:06;96541.88;;;1.60;100.00
9423;BME280;65863;49.506;10.400;2023-12-22T04:12:50;96584.31;;;1.95;100.00
9423;BME280;65863;49.506;10.400;2023-12-22T04:15:34;96602.75;;;2.06;100.00
9423;BME280;65863;49.506;10.400;2023-12-22T04:18:18;96620.78;;;2.26;100.00
9423;BME280;65863;49.506;10.400;2023-12-22T04:21:02;96621.66;;;2.34;100.00
9423;BME280;65863;49.506;10.400;2023-12-22T04:23:46;96598.53;;;2.18;100.00
9423;BME280;65863;49.506;10.400;2023-12-22T04:26:30;96595.75;;;2.18;100.00
9423;BME280;65863;49.506;10.400;2023-12-22T04:29:14;96604.59;;;2.30;100.00
9423;BME280;65863;49.506;10.400;2023-12-22T04:31:59;96566.69;;;2.12;100.00
9423;BME280;65863;49.506;10.400;2023-12-22T04:34:43;96594.78;;;2.29;100.00
9423;BME280;65863;49.506;10.400;2023-12-22T04:37:27;96622.28;;;2.40;100.00
9423;BME280;65863;49.506;10.400;2023-12-22T04:40:11;96590.97;;;2.19;100.00
9423;BME280;65863;49.506;10.400;2023-12-22T04:42:55;96574.09;;;2.03;100.00
9423;BME280;65863;49.506;10.400;2023-12-22T04:45:39;96591.59;;;2.25;100.00
9423;BME280;65863;49.506;10.400;2023-12-22T04:48:23;96577.19;;;2.00;100.00
9423;BME280;65863;49.506;10.400;2023-12-22T04:51:07;96619.41;;;2.33;100.00
9423;BME280;65863;49.506;10.400;2023-12-22T04:53:51;96634.44;;;2.37;100.00
9423;BME280;65863;49.506;10.400;2023-12-22T04:56:35;96631.66;;;2.37;100.00
9423;BME280;65863;49.506;10.400;2023-12-22T04:59:19;96622.16;;;2.19;100.00
9423;BME280;65863;49.506;10.400;2023-12-22T05:02:03;96591.75;;;1.87;100.00
9423;BME280;65863;49.506;10.400;2023-12-22T05:04:47;96648.03;;;2.22;100.00
9423;BME280;65863;49.506;10.400;2023-12-22T05:07:31;96619.03;;;2.10;100.00
9423;BME280;65863;49.506;10.400;2023-12-22T05:10:15;96624.56;;;2.10;100.00
9423;BME280;65863;49.506;10.400;2023-12-22T05:12:59;96644.53;;;2.21;100.00
9423;BME280;65863;49.506;10.400;2023-12-22T05:15:43;96619.03;;;2.10;100.00
9423;BME280;65863;49.506;10.400;2023-12-22T05:18:27;96649.75;;;2.25;100.00
9423;BME280;65863;49.506;10.400;2023-12-22T05:21:14;96667.13;;;2.26;100.00
9423;BME280;65863;49.506;10.400;2023-12-22T05:23:58;96635.25;;;2.19;100.00
9423;BME280;65863;49.506;10.400;2023-12-22T05:26:42;96584.44;;;2.03;100.00
9423;BME280;65863;49.506;10.400;2023-12-22T05:29:26;96630.06;;;2.42;100.00
9423;BME280;65863;49.506;10.400;2023-12-22T05:32:10;96618.16;;;2.47;100.00
9423;BME280;65863;49.506;10.400;2023-12-22T05:34:54;96629.09;;;2.66;100.00
9423;BME280;65863;49.506;10.400;2023-12-22T05:37:38;96628.38;;;2.66;100.00
9423;BME280;65863;49.506;10.400;2023-12-22T05:40:22;96608.34;;;2.46;100.00
9423;BME280;65863;49.506;10.400;2023-12-22T05:43:06;96605.13;;;2.42;100.00
9423;BME280;65863;49.506;10.400;2023-12-22T05:45:51;96618.66;;;2.59;100.00
9423;BME280;65863;49.506;10.400;2023-12-22T05:48:35;96606.44;;;2.54;100.00
9423;BME280;65863;49.506;10.400;2023-12-22T05:51:19;96624.34;;;2.67;100.00
9423;BME280;65863;49.506;10.400;2023-12-22T05:54:04;96631.25;;;2.60;100.00
9423;BME280;65863;49.506;10.400;2023-12-22T05:56:48;96627.75;;;2.60;100.00
9423;BME280;65863;49.506;10.400;2023-12-22T05:59:35;96645.09;;;2.73;100.00
9423;BME280;65863;49.506;10.400;2023-12-22T06:02:18;96634.34;;;2.70;100.00
9423;BME280;65863;49.506;10.400;2023-12-22T06:05:03;96644.88;;;2.85;100.00
9423;BME280;65863;49.506;10.400;2023-12-22T06:07:47;96631.03;;;2.98;100.00
9423;BME280;65863;49.506;10.400;2023-12-22T06:10:31;96650.66;;;2.87;100.00
9423;BME280;65863;49.506;10.400;2023-12-22T06:13:15;96646.81;;;2.90;100.00
9423;BME280;65863;49.506;10.400;2023-12-22T06:15:59;96638.59;;;2.84;100.00
9423;BME280;65863;49.506;10.400;2023-12-22T06:18:43;96671.00;;;3.03;100.00
9423;BME280;65863;49.506;10.400;2023-12-22T06:21:27;96661.63;;;2.92;100.00
9423;BME280;65863;49.506;10.400;2023-12-22T06:24:11;96648.41;;;2.85;100.00
9423;BME280;65863;49.506;10.400;2023-12-22T06:26:55;96685.91;;;3.13;100.00
9423;BME280;65863;49.506;10.400;2023-12-22T06:29:39;96683.03;;;3.19;100.00
9423;BME280;65863;49.506;10.400;2023-12-22T06:32:24;96657.13;;;3.03;100.00
9423;BME280;65863;49.506;10.400;2023-12-22T06:35:08;96670.56;;;3.12;100.00
9423;BME280;65863;49.506;10.400;2023-12-22T06:37:53;96688.50;;;3.11;100.00
9423;BME280;65863;49.506;10.400;2023-12-22T06:40:39;96657.47;;;2.99;100.00
9423;BME280;65863;49.506;10.400;2023-12-22T06:43:23;96681.75;;;3.20;100.00
9423;BME280;65863;49.506;10.400;2023-12-22T06:46:14;96686.75;;;3.35;100.00
9423;BME280;65863;49.506;10.400;2023-12-22T06:48:59;96666.63;;;3.07;100.00
9423;BME280;65863;49.506;10.400;2023-12-22T06:51:43;96689.97;;;3.39;100.00
9423;BME280;65863;49.506;10.400;2023-12-22T06:54:27;96643.28;;;3.03;100.00
9423;BME280;65863;49.506;10.400;2023-12-22T06:57:12;96690.69;;;3.39;100.00
9423;BME280;65863;49.506;10.400;2023-12-22T06:59:56;96683.22;;;3.34;100.00
9423;BME280;65863;49.506;10.400;2023-12-22T07:02:41;96696.31;;;3.47;100.00
9423;BME280;65863;49.506;10.400;2023-12-22T07:05:32;96689.72;;;3.50;100.00
9423;BME280;65863;49.506;10.400;2023-12-22T07:08:16;96651.00;;;3.31;100.00
9423;BME280;65863;49.506;10.400;2023-12-22T07:11:00;96690.69;;;3.39;100.00
9423;BME280;65863;49.506;10.400;2023-12-22T07:13:44;96683.22;;;3.34;100.00
9423;BME280;65863;49.506;10.400;2023-12-22T07:16:29;96649.56;;;3.17;100.00
9423;BME280;65863;49.506;10.400;2023-12-22T07:19:13;96629.63;;;3.05;100.00
9423;BME280;65863;49.506;10.400;2023-12-22T07:21:57;96679.78;;;3.41;100.00
9423;BME280;65863;49.506;10.400;2023-12-22T07:24:41;96682.97;;;3.45;100.00
9423;BME280;65863;49.506;10.400;2023-12-22T07:27:25;96690.47;;;3.51;100.00
9423;BME280;65863;49.506;10.400;2023-12-22T07:30:10;96681.78;;;3.54;100.00
9423;BME280;65863;49.506;10.400;2023-12-22T07:32:55;96664.81;;;3.58;100.00
9423;BME280;65863;49.506;10.400;2023-12-22T07:35:39;96685.91;;;3.74;100.00
9423;BME280;65863;49.506;10.400;2023-12-22T07:38:24;96666.50;;;3.74;99.27
9423;BME280;65863;49.506;10.400;2023-12-22T07:41:08;96657.25;;;3.79;98.82
9423;BME280;65863;49.506;10.400;2023-12-22T07:43:52;96540.81;;;2.97;97.44
9423;BME280;65863;49.506;10.400;2023-12-22T07:46:36;96676.13;;;3.94;96.23
9423;BME280;65863;49.506;10.400;2023-12-22T07:49:20;96686.06;;;4.11;95.96
9423;BME280;65863;49.506;10.400;2023-12-22T07:52:05;96680.22;;;4.01;95.43
9423;BME280;65863;49.506;10.400;2023-12-22T07:54:49;96707.28;;;4.22;95.28
9423;BME280;65863;49.506;10.400;2023-12-22T07:57:33;96694.75;;;4.07;95.15
9423;BME280;65863;49.506;10.400;2023-12-22T08:00:17;96687.53;;;3.91;96.10
9423;BME280;65863;49.506;10.400;2023-12-22T08:03:02;96706.59;;;4.08;96.35
9423;BME280;65863;49.506;10.400;2023-12-22T08:05:46;96733.03;;;4.22;96.52
9423;BME280;65863;49.506;10.400;2023-12-22T08:08:30;96711.81;;;4.11;95.65
9423;BME280;65863;49.506;10.400;2023-12-22T08:11:14;96718.22;;;4.20;95.28
9423;BME280;65863;49.506;10.400;2023-12-22T08:13:58;96737.91;;;4.29;94.67
9423;BME280;65863;49.506;10.400;2023-12-22T08:16:44;96720.09;;;4.25;94.26
9423;BME280;65863;49.506;10.400;2023-12-22T08:19:28;96724.97;;;4.32;93.77
9423;BME280;65863;49.506;10.400;2023-12-22T08:22:12;96735.25;;;4.45;92.14
9423;BME280;65863;49.506;10.400;2023-12-22T08:24:59;96763.47;;;4.70;92.20
9423;BME280;65863;49.506;10.400;2023-12-22T08:27:43;96743.69;;;4.53;92.43
9423;BME280;65863;49.506;10.400;2023-12-22T08:30:28;96747.16;;;4.45;92.38
9423;BME280;65863;49.506;10.400;2023-12-22T08:33:12;96763.59;;;4.64;92.16
9423;BME280;65863;49.506;10.400;2023-12-22T08:35:56;96754.84;;;4.60;92.84
9423;BME280;65863;49.506;10.400;2023-12-22T08:38:41;96710.81;;;4.43;91.97
9423;BME280;65863;49.506;10.400;2023-12-22T08:41:25;96715.13;;;4.52;91.17
9423;BME280;65863;49.506;10.400;2023-12-22T08:44:10;96755.47;;;4.88;90.70
9423;BME280;65863;49.506;10.400;2023-12-22T08:46:54;96738.25;;;4.68;90.95
9423;BME280;65863;49.506;10.400;2023-12-22T08:49:38;96730.03;;;4.83;89.61
9423;BME280;65863;49.506;10.400;2023-12-22T08:52:22;96723.09;;;4.98;89.23
9423;BME280;65863;49.506;10.400;2023-12-22T08:55:06;96704.34;;;4.98;88.62
9423;BME280;65863;49.506;10.400;2023-12-22T08:57:50;96735.94;;;5.09;88.53
9423;BME280;65863;49.506;10.400;2023-12-22T09:00:34;96713.97;;;4.97;88.64
9423;BME280;65863;49.506;10.400;2023-12-22T09:03:18;96716.72;;;4.90;89.17
9423;BME280;65863;49.506;10.400;2023-12-22T09:06:02;96696.84;;;4.86;90.01
9423;BME280;65863;49.506;10.400;2023-12-22T09:08:46;96745.03;;;5.09;90.74
9423;BME280;65863;49.506;10.400;2023-12-22T09:11:30;96705.78;;;4.63;92.82
9423;BME280;65863;49.506;10.400;2023-12-22T09:14:14;96763.75;;;4.59;96.07
9423;BME280;65863;49.506;10.400;2023-12-22T09:16:58;96750.19;;;4.34;97.30
9423;BME280;65863;49.506;10.400;2023-12-22T09:19:42;96713.16;;;3.97;98.16
9423;BME280;65863;49.506;10.400;2023-12-22T09:22:26;96757.28;;;4.22;98.77
9423;BME280;65863;49.506;10.400;2023-12-22T09:25:10;96779.25;;;4.33;100.00
9423;BME280;65863;49.506;10.400;2023-12-22T09:27:54;96743.94;;;4.20;100.00
9423;BME280;65863;49.506;10.400;2023-12-22T09:30:38;96791.13;;;4.55;99.89
9423;BME280;65863;49.506;10.400;2023-12-22T09:33:22;96763.44;;;4.28;100.00
9423;BME280;65863;49.506;10.400;2023-12-22T09:36:07;96783.88;;;4.52;99.52
9423;BME280;65863;49.506;10.400;2023-12-22T09:38:51;96773.34;;;4.58;98.91
9423;BME280;65863;49.506;10.400;2023-12-22T09:41:35;96780.22;;;4.78;97.79
9423;BME280;65863;49.506;10.400;2023-12-22T09:44:20;96779.88;;;4.81;97.63
9423;BME280;65863;49.506;10.400;2023-12-22T09:47:05;96728.28;;;4.52;97.20
9423;BME280;65863;49.506;10.400;2023-12-22T09:49:49;96708.78;;;4.44;96.89
9423;BME280;65863;49.506;10.400;2023-12-22T09:52:35;96758.63;;;4.92;96.65
9423;BME280;65863;49.506;10.400;2023-12-22T09:55:21;96780.19;;;4.99;96.39
9423;BME280;65863;49.506;10.400;2023-12-22T09:58:08;96778.19;;;5.07;96.34
9423;BME280;65863;49.506;10.400;2023-12-22T10:00:54;96705.78;;;4.63;96.90
9423;BME280;65863;49.506;10.400;2023-12-22T10:03:41;96786.94;;;5.11;96.93
9423;BME280;65863;49.506;10.400;2023-12-22T10:06:26;96771.09;;;4.98;96.99
9423;BME280;65863;49.506;10.400;2023-12-22T10:09:11;96733.16;;;4.80;97.13
9423;BME280;65863;49.506;10.400;2023-12-22T10:11:59;96761.81;;;4.96;96.19
9423;BME280;65863;49.506;10.400;2023-12-22T10:14:47;96733.22;;;4.88;94.95
9423;BME280;65863;49.506;10.400;2023-12-22T10:17:31;96771.34;;;5.08;95.09
9423;BME280;65863;49.506;10.400;2023-12-22T10:20:15;96745.41;;;4.85;94.94
9423;BME280;65863;49.506;10.400;2023-12-22T10:23:00;96756.13;;;4.80;95.93
9423;BME280;65863;49.506;10.400;2023-12-22T10:25:45;96755.75;;;4.76;95.14
9423;BME280;65863;49.506;10.400;2023-12-22T10:28:29;96706.75;;;4.44;94.25
9423;BME280;65863;49.506;10.400;2023-12-22T10:31:13;96739.94;;;4.71;95.82
9423;BME280;65863;49.506;10.400;2023-12-22T10:33:57;96724.63;;;4.57;96.86
9423;BME280;65863;49.506;10.400;2023-12-22T10:36:41;96665.75;;;4.37;96.29
9423;BME280;65863;49.506;10.400;2023-12-22T10:39:29;96727.25;;;4.83;97.46
9423;BME280;65863;49.506;10.400;2023-12-22T10:42:14;96704.69;;;4.66;98.04
9423;BME280;65863;49.506;10.400;2023-12-22T10:44:58;96700.63;;;4.46;97.89
9423;BME280;65863;49.506;10.400;2023-12-22T10:47:42;96711.22;;;4.47;97.58
9423;BME280;65863;49.506;10.400;2023-12-22T10:50:25;96687.84;;;4.22;98.54
9423;BME280;65863;49.506;10.400;2023-12-22T10:53:11;96723.72;;;4.62;99.58
9423;BME280;65863;49.506;10.400;2023-12-22T10:55:56;96709.78;;;4.54;100.00
9423;BME280;65863;49.506;10.400;2023-12-22T10:58:42;96697.72;;;4.52;100.00
9423;BME280;65863;49.506;10.400;2023-12-22T11:01:28;96714.38;;;4.73;100.00
9423;BME280;65863;49.506;10.400;2023-12-22T11:04:20;96705.63;;;4.69;100.00
9423;BME280;65863;49.506;10.400;2023-12-22T11:07:05;96691.47;;;4.59;100.00
9423;BME280;65863;49.506;10.400;2023-12-22T11:09:53;96692.78;;;4.87;100.00
9423;BME280;65863;49.506;10.400;2023-12-22T11:12:40;96718.31;;;5.06;100.00
9423;BME280;65863;49.506;10.400;2023-12-22T11:15:28;96689.72;;;4.98;100.00
9423;BME280;65863;49.506;10.400;2023-12-22T11:18:12;96688.00;;;5.24;100.00
9423;BME280;65863;49.506;10.400;2023-12-22T11:20:57;96679.88;;;5.33;99.65
9423;BME280;65863;49.506;10.400;2023-12-22T11:23:44;96641.34;;;5.09;98.83
9423;BME280;65863;49.506;10.400;2023-12-22T11:26:29;96667.81;;;5.31;98.53
9423;BME280;65863;49.506;10.400;2023-12-22T11:29:14;96656.16;;;5.40;98.58
9423;BME280;65863;49.506;10.400;2023-12-22T11:31:59;96605.03;;;5.14;98.50
9423;BME280;65863;49.506;10.400;2023-12-22T11:34:47;96633.69;;;5.38;99.04
9423;BME280;65863;49.506;10.400;2023-12-22T11:37:31;96621.44;;;5.41;98.74
9423;BME280;65863;49.506;10.400;2023-12-22T11:40:17;96630.00;;;5.43;98.88
9423;BME280;65863;49.506;10.400;2023-12-22T11:43:01;96611.09;;;5.42;98.67
9423;BME280;65863;49.506;10.400;2023-12-22T11:45:49;96633.03;;;5.61;98.89
9423;BME280;65863;49.506;10.400;2023-12-22T11:48:33;96591.06;;;5.51;98.26
9423;BME280;65863;49.506;10.400;2023-12-22T11:51:18;96618.97;;;5.74;98.47
9423;BME280;65863;49.506;10.400;2023-12-22T11:54:02;96624.53;;;5.74;98.63
9423;BME280;65863;49.506;10.400;2023-12-22T11:56:46;96597.38;;;5.51;99.65
9423;BME280;65863;49.506;10.400;2023-12-22T11:59:33;96608.69;;;5.61;100.00
9423;BME280;65863;49.506;10.400;2023-12-22T12:02:17;96508.59;;;5.09;99.83
9423;BME280;65863;49.506;10.400;2023-12-22T12:05:02;96608.38;;;5.80;99.37
9423;BME280;65863;49.506;10.400;2023-12-22T12:07:47;96589.25;;;5.84;98.35
9423;BME280;65863;49.506;10.400;2023-12-22T12:13:22;96570.31;;;5.91;97.52
9423;BME280;65863;49.506;10.400;2023-12-22T12:16:07;96539.13;;;5.84;96.87
9423;BME280;65863;49.506;10.400;2023-12-22T12:18:51;96556.22;;;5.89;96.51
9423;BME280;65863;49.506;10.400;2023-12-22T12:21:36;96540.25;;;5.89;96.47
9423;BME280;65863;49.506;10.400;2023-12-22T12:24:20;96538.03;;;5.88;96.48
9423;BME280;65863;49.506;10.400;2023-12-22T12:27:05;96514.44;;;5.96;96.14
9423;BME280;65863;49.506;10.400;2023-12-22T12:29:50;96512.41;;;5.97;96.06
9423;BME280;65863;49.506;10.400;2023-12-22T12:32:35;96456.53;;;5.64;96.22
9423;BME280;65863;49.506;10.400;2023-12-22T12:35:19;96518.72;;;6.13;95.75
9423;BME280;65863;49.506;10.400;2023-12-22T12:38:03;96500.91;;;6.08;94.80
9423;BME280;65863;49.506;10.400;2023-12-22T12:40:50;96512.59;;;6.14;95.16
9423;BME280;65863;49.506;10.400;2023-12-22T12:43:34;96490.88;;;6.05;95.94
9423;BME280;65863;49.506;10.400;2023-12-22T12:46:19;96475.84;;;6.08;95.30
9423;BME280;65863;49.506;10.400;2023-12-22T12:49:06;96504.22;;;6.07;95.32
9423;BME280;65863;49.506;10.400;2023-12-22T12:51:51;96463.38;;;5.94;95.88
9423;BME280;65863;49.506;10.400;2023-12-22T12:54:34;96521.28;;;6.26;95.77
9423;BME280;65863;49.506;10.400;2023-12-22T12:57:18;96491.03;;;6.23;96.06
9423;BME280;65863;49.506;10.400;2023-12-22T13:00:03;96485.47;;;6.15;96.31
9423;BME280;65863;49.506;10.400;2023-12-22T13:02:47;96454.84;;;6.07;96.96
9423;BME280;65863;49.506;10.400;2023-12-22T13:05:32;96480.63;;;6.31;96.74
9423;BME280;65863;49.506;10.400;2023-12-22T13:08:16;96463.38;;;6.09;97.71
9423;BME280;65863;49.506;10.400;2023-12-22T13:11:01;96465.22;;;6.14;97.63
9423;BME280;65863;49.506;10.400;2023-12-22T13:13:45;96474.53;;;6.17;97.30
9423;BME280;65863;49.506;10.400;2023-12-22T13:16:29;96438.91;;;5.84;97.56
9423;BME280;65863;49.506;10.400;2023-12-22T13:19:13;96476.41;;;5.91;98.62
9423;BME280;65863;49.506;10.400;2023-12-22T13:21:58;96490.31;;;5.99;99.29
9423;BME280;65863;49.506;10.400;2023-12-22T13:24:54;96506.09;;;6.12;98.65
9423;BME280;65863;49.506;10.400;2023-12-22T13:27:48;96515.75;;;6.18;98.42
9423;BME280;65863;49.506;10.400;2023-12-22T13:30:36;96489.94;;;5.95;99.20
9423;BME280;65863;49.506;10.400;2023-12-22T13:33:24;96487.88;;;5.95;99.86
9423;BME280;65863;49.506;10.400;2023-12-22T13:36:12;96496.63;;;6.07;100.00
9423;BME280;65863;49.506;10.400;2023-12-22T13:38:57;96488.09;;;5.97;100.00
9423;BME280;65863;49.506;10.400;2023-12-22T13:41:42;96495.13;;;6.06;100.00
9423;BME280;65863;49.506;10.400;2023-12-22T13:44:29;96487.72;;;6.01;100.00
9423;BME280;65863;49.506;10.400;2023-12-22T13:47:15;96497.38;;;6.15;100.00
9423;BME280;65863;49.506;10.400;2023-12-22T13:49:59;96497.19;;;6.21;100.00
9423;BME280;65863;49.506;10.400;2023-12-22T13:52:43;96494.03;;;6.17;100.00
9423;BME280;65863;49.506;10.400;2023-12-22T13:55:28;96494.00;;;6.32;100.00
9423;BME280;65863;49.506;10.400;2023-12-22T13:58:18;96439.44;;;5.91;100.00
9423;BME280;65863;49.506;10.400;2023-12-22T14:01:12;96486.75;;;6.22;100.00
9423;BME280;65863;49.506;10.400;2023-12-22T14:04:01;96485.06;;;6.26;100.00
9423;BME280;65863;49.506;10.400;2023-12-22T14:06:45;96482.81;;;6.40;100.00
9423;BME280;65863;49.506;10.400;2023-12-22T14:09:29;96432.72;;;5.94;100.00
9423;BME280;65863;49.506;10.400;2023-12-22T14:12:16;96449.25;;;6.15;100.00
9423;BME280;65863;49.506;10.400;2023-12-22T14:15:02;96485.97;;;6.44;100.00
9423;BME280;65863;49.506;10.400;2023-12-22T14:17:46;96492.66;;;6.41;100.00
9423;BME280;65863;49.506;10.400;2023-12-22T14:20:30;96515.28;;;6.61;100.00
9423;BME280;65863;49.506;10.400;2023-12-22T14:23:14;96533.47;;;6.62;100.00
9423;BME280;65863;49.506;10.400;2023-12-22T14:26:01;96512.34;;;6.51;100.00
9423;BME280;65863;49.506;10.400;2023-12-22T14:28:45;96531.47;;;6.54;100.00
9423;BME280;65863;49.506;10.400;2023-12-22T14:31:34;96498.44;;;6.28;100.00
9423;BME280;65863;49.506;10.400;2023-12-22T14:34:18;96543.94;;;6.53;100.00
9423;BME280;65863;49.506;10.400;2023-12-22T14:37:02;96517.56;;;6.39;100.00
9423;BME280;65863;49.506;10.400;2023-12-22T14:39:47;96566.78;;;6.44;100.00
9423;BME280;65863;49.506;10.400;2023-12-22T14:42:32;96565.13;;;6.41;100.00